createdAt,value
2019-03-06T00:00:31.015Z,6.57
2019-03-06T00:01:30.973Z,6.62
2019-03-06T00:02:30.948Z,6.67
2019-03-06T00:03:30.926Z,6.64
2019-03-06T00:04:30.901Z,6.56
2019-03-06T00:05:30.872Z,6.60
2019-03-06T00:06:30.847Z,6.67
2019-03-06T00:07:30.824Z,6.65
2019-03-06T00:08:30.798Z,6.65
2019-03-06T00:09:30.773Z,6.57
2019-03-06T00:10:30.757Z,6.62
2019-03-06T00:11:30.726Z,6.67
2019-03-06T00:12:30.699Z,6.67
2019-03-06T00:13:30.673Z,6.71
2019-03-06T00:14:30.650Z,6.67
2019-03-06T00:15:30.629Z,6.67
2019-03-06T00:16:30.600Z,6.67
2019-03-06T00:17:30.575Z,6.71
2019-03-06T00:18:30.551Z,6.65
2019-03-06T00:19:30.530Z,6.64
2019-03-06T00:20:30.505Z,6.65
2019-03-06T00:21:30.476Z,6.70
2019-03-06T00:22:30.453Z,6.65
2019-03-06T00:23:30.433Z,6.64
2019-03-06T00:24:30.401Z,6.64
2019-03-06T00:25:30.376Z,6.67
2019-03-06T00:26:30.352Z,6.65
2019-03-06T00:27:30.328Z,6.65
2019-03-06T00:28:30.302Z,6.71
2019-03-06T00:29:30.276Z,6.70
2019-03-06T00:30:30.253Z,6.72
2019-03-06T00:31:30.232Z,6.72
2019-03-06T00:32:30.205Z,6.72
2019-03-06T00:33:30.177Z,6.68
2019-03-06T00:34:30.154Z,6.72
2019-03-06T00:35:30.129Z,6.71
2019-03-06T00:36:30.107Z,6.75
2019-03-06T00:37:30.079Z,6.70
2019-03-06T00:38:30.072Z,6.71
2019-03-06T00:39:30.033Z,6.82
2019-03-06T00:40:30.005Z,6.77
2019-03-06T00:41:29.979Z,6.78
2019-03-06T00:42:29.955Z,6.80
2019-03-06T00:43:29.930Z,6.86
2019-03-06T00:44:29.906Z,6.85
2019-03-06T00:45:29.881Z,6.80
2019-03-06T00:46:29.861Z,6.80
2019-03-06T00:47:29.833Z,6.85
2019-03-06T00:48:29.812Z,6.80
2019-03-06T00:49:29.781Z,6.82
2019-03-06T00:50:29.757Z,6.83
2019-03-06T00:51:29.732Z,6.85
2019-03-06T00:52:29.713Z,6.83
2019-03-06T00:53:29.691Z,6.86
2019-03-06T00:54:29.657Z,6.80
2019-03-06T00:55:29.636Z,6.83
2019-03-06T00:56:29.608Z,6.83
2019-03-06T00:57:29.585Z,6.95
2019-03-06T00:58:29.563Z,6.82
2019-03-06T00:59:29.542Z,6.86
2019-03-06T01:00:29.509Z,6.85
2019-03-06T01:01:29.484Z,6.80
2019-03-06T01:02:29.461Z,6.82
2019-03-06T01:03:29.435Z,6.85
2019-03-06T01:04:29.413Z,6.77
2019-03-06T01:05:29.383Z,6.89
2019-03-06T01:06:29.361Z,6.82
2019-03-06T01:07:29.338Z,6.80
2019-03-06T01:08:29.311Z,6.85
2019-03-06T01:09:29.296Z,6.82
2019-03-06T01:10:29.261Z,6.96
2019-03-06T01:11:29.238Z,6.92
2019-03-06T01:12:29.216Z,6.92
2019-03-06T01:13:29.187Z,6.90
2019-03-06T01:14:29.162Z,6.93
2019-03-06T01:15:29.137Z,6.96
2019-03-06T01:16:29.115Z,6.93
2019-03-06T01:17:29.088Z,6.96
2019-03-06T01:18:29.063Z,7.07
2019-03-06T01:19:29.061Z,7.04
2019-03-06T01:20:29.015Z,7.05
2019-03-06T01:21:28.988Z,7.05
2019-03-06T01:22:28.973Z,7.05
2019-03-06T01:23:28.941Z,7.07
2019-03-06T01:24:28.919Z,7.10
2019-03-06T01:25:28.889Z,7.11
2019-03-06T01:26:28.868Z,7.10
2019-03-06T01:27:28.842Z,7.13
2019-03-06T01:28:28.819Z,7.10
2019-03-06T01:29:28.793Z,7.18
2019-03-06T01:30:28.780Z,7.23
2019-03-06T01:31:28.743Z,7.14
2019-03-06T01:32:28.718Z,7.23
2019-03-06T01:33:28.694Z,7.23
2019-03-06T01:34:28.669Z,7.21
2019-03-06T01:35:28.647Z,7.21
2019-03-06T01:36:28.620Z,7.22
2019-03-06T01:37:28.594Z,7.19
2019-03-06T01:38:28.570Z,7.18
2019-03-06T01:39:28.552Z,7.21
2019-03-06T01:40:28.522Z,7.21
2019-03-06T01:41:28.496Z,7.26
2019-03-06T01:42:28.476Z,7.22
2019-03-06T01:43:28.456Z,7.26
2019-03-06T01:44:28.423Z,7.23
2019-03-06T01:45:28.398Z,7.23
2019-03-06T01:46:28.396Z,7.26
2019-03-06T01:47:28.349Z,7.22
2019-03-06T01:48:28.327Z,7.23
2019-03-06T01:49:28.299Z,7.21
2019-03-06T01:50:28.312Z,7.32
2019-03-06T01:51:28.251Z,7.26
2019-03-06T01:52:28.227Z,7.25
2019-03-06T01:53:28.206Z,7.25
2019-03-06T01:54:28.183Z,7.32
2019-03-06T01:55:28.152Z,7.26
2019-03-06T01:56:28.129Z,7.29
2019-03-06T01:57:28.103Z,7.26
2019-03-06T01:58:28.077Z,7.21
2019-03-06T01:59:28.054Z,7.25
2019-03-06T02:00:28.029Z,7.26
2019-03-06T02:01:28.003Z,7.21
2019-03-06T02:02:27.986Z,7.21
2019-03-06T02:03:27.954Z,7.21
2019-03-06T02:04:27.930Z,7.21
2019-03-06T02:05:27.905Z,7.19
2019-03-06T02:06:27.882Z,7.21
2019-03-06T02:07:27.859Z,7.23
2019-03-06T02:08:27.832Z,7.21
2019-03-06T02:09:27.819Z,7.23
2019-03-06T02:10:27.783Z,7.21
2019-03-06T02:11:27.758Z,7.26
2019-03-06T02:12:27.738Z,7.28
2019-03-06T02:13:27.707Z,7.29
2019-03-06T02:14:27.686Z,7.22
2019-03-06T02:15:27.660Z,7.32
2019-03-06T02:16:27.637Z,7.31
2019-03-06T02:17:27.610Z,7.33
2019-03-06T02:18:27.592Z,7.33
2019-03-06T02:19:27.560Z,7.31
2019-03-06T02:20:27.543Z,7.44
2019-03-06T02:21:27.514Z,7.32
2019-03-06T02:22:27.490Z,7.37
2019-03-06T02:23:27.463Z,7.39
2019-03-06T02:24:27.442Z,7.47
2019-03-06T02:25:27.415Z,7.39
2019-03-06T02:26:27.389Z,7.40
2019-03-06T02:27:27.365Z,7.47
2019-03-06T02:28:27.343Z,7.47
2019-03-06T02:29:27.315Z,7.40
2019-03-06T02:30:27.295Z,7.44
2019-03-06T02:31:27.268Z,7.46
2019-03-06T02:32:27.245Z,7.46
2019-03-06T02:33:27.220Z,7.44
2019-03-06T02:34:27.203Z,7.40
2019-03-06T02:35:27.170Z,7.41
2019-03-06T02:36:27.148Z,7.40
2019-03-06T02:37:27.121Z,7.50
2019-03-06T02:38:27.096Z,7.50
2019-03-06T02:39:27.079Z,7.44
2019-03-06T02:40:27.050Z,7.41
2019-03-06T02:41:27.028Z,7.41
2019-03-06T02:42:26.999Z,7.40
2019-03-06T02:43:26.975Z,7.41
2019-03-06T02:44:26.950Z,7.44
2019-03-06T02:45:26.929Z,7.43
2019-03-06T02:46:26.901Z,7.46
2019-03-06T02:47:26.879Z,7.41
2019-03-06T02:48:26.854Z,7.51
2019-03-06T02:49:26.827Z,7.48
2019-03-06T02:50:26.806Z,7.47
2019-03-06T02:51:26.783Z,7.41
2019-03-06T02:52:26.760Z,7.41
2019-03-06T02:53:26.730Z,7.39
2019-03-06T02:54:26.706Z,7.41
2019-03-06T02:55:26.681Z,7.26
2019-03-06T02:56:26.658Z,7.29
2019-03-06T02:57:26.634Z,7.25
2019-03-06T02:58:26.623Z,7.29
2019-03-06T02:59:26.592Z,7.28
2019-03-06T03:00:26.560Z,7.32
2019-03-06T03:01:26.539Z,7.32
2019-03-06T03:02:26.509Z,7.33
2019-03-06T03:03:26.486Z,7.33
2019-03-06T03:04:26.465Z,7.36
2019-03-06T03:05:26.435Z,7.28
2019-03-06T03:06:26.417Z,7.33
2019-03-06T03:07:26.386Z,7.36
2019-03-06T03:08:26.362Z,7.33
2019-03-06T03:09:26.343Z,7.33
2019-03-06T03:10:26.312Z,7.41
2019-03-06T03:11:26.287Z,7.36
2019-03-06T03:12:26.265Z,7.33
2019-03-06T03:13:26.242Z,7.31
2019-03-06T03:14:26.218Z,7.32
2019-03-06T03:15:26.190Z,7.32
2019-03-06T03:16:26.170Z,7.32
2019-03-06T03:17:26.149Z,7.40
2019-03-06T03:18:26.116Z,7.28
2019-03-06T03:19:26.093Z,7.36
2019-03-06T03:20:26.067Z,7.32
2019-03-06T03:21:27.094Z,7.26
2019-03-06T03:22:26.018Z,7.36
2019-03-06T03:23:25.994Z,7.32
2019-03-06T03:24:25.972Z,7.28
2019-03-06T03:25:25.943Z,7.39
2019-03-06T03:26:25.919Z,7.33
2019-03-06T03:27:25.893Z,7.28
2019-03-06T03:28:25.871Z,7.32
2019-03-06T03:29:25.845Z,7.29
2019-03-06T03:30:25.826Z,7.32
2019-03-06T03:31:25.809Z,7.33
2019-03-06T03:32:25.773Z,7.31
2019-03-06T03:33:25.753Z,7.36
2019-03-06T03:34:25.730Z,7.32
2019-03-06T03:35:25.696Z,7.28
2019-03-06T03:36:25.673Z,7.28
2019-03-06T03:37:25.650Z,7.29
2019-03-06T03:38:25.621Z,7.28
2019-03-06T03:39:25.613Z,7.29
2019-03-06T03:40:25.575Z,7.31
2019-03-06T03:41:25.549Z,7.29
2019-03-06T03:42:25.523Z,7.26
2019-03-06T03:43:25.497Z,7.26
2019-03-06T03:44:25.477Z,7.33
2019-03-06T03:45:25.460Z,7.32
2019-03-06T03:46:25.425Z,7.26
2019-03-06T03:47:25.400Z,7.31
2019-03-06T03:48:25.375Z,7.37
2019-03-06T03:49:27.775Z,7.37
2019-03-06T03:50:25.322Z,7.32
2019-03-06T03:51:25.300Z,7.33
2019-03-06T03:52:25.274Z,7.31
2019-03-06T03:53:25.249Z,7.26
2019-03-06T03:54:25.265Z,7.31
2019-03-06T03:55:25.201Z,7.33
2019-03-06T03:56:25.204Z,7.41
2019-03-06T03:57:25.164Z,7.32
2019-03-06T03:58:25.127Z,7.41
2019-03-06T03:59:25.101Z,7.43
2019-03-06T04:00:25.079Z,7.40
2019-03-06T04:01:25.052Z,7.39
2019-03-06T04:02:25.028Z,7.33
2019-03-06T04:03:25.002Z,7.44
2019-03-06T04:04:24.978Z,7.33
2019-03-06T04:05:24.959Z,7.40
2019-03-06T04:06:24.931Z,7.41
2019-03-06T04:07:24.909Z,7.39
2019-03-06T04:08:24.878Z,7.43
2019-03-06T04:09:24.854Z,7.44
2019-03-06T04:10:24.829Z,7.37
2019-03-06T04:11:24.805Z,7.37
2019-03-06T04:12:24.783Z,7.40
2019-03-06T04:13:24.755Z,7.44
2019-03-06T04:14:24.734Z,7.44
2019-03-06T04:15:24.709Z,7.44
2019-03-06T04:16:24.681Z,7.37
2019-03-06T04:17:24.659Z,7.47
2019-03-06T04:18:24.632Z,7.39
2019-03-06T04:19:24.609Z,7.46
2019-03-06T04:20:24.589Z,7.43
2019-03-06T04:21:24.558Z,7.41
2019-03-06T04:22:24.537Z,7.43
2019-03-06T04:23:24.518Z,7.43
2019-03-06T04:24:24.485Z,7.43
2019-03-06T04:25:24.470Z,7.40
2019-03-06T04:26:24.438Z,7.39
2019-03-06T04:27:24.414Z,7.46
2019-03-06T04:28:24.386Z,7.41
2019-03-06T04:29:24.360Z,7.40
2019-03-06T04:30:24.341Z,7.36
2019-03-06T04:31:24.312Z,7.36
2019-03-06T04:32:24.287Z,7.36
2019-03-06T04:33:24.263Z,7.29
2019-03-06T04:34:24.239Z,7.39
2019-03-06T04:35:24.217Z,7.33
2019-03-06T04:36:24.189Z,7.28
2019-03-06T04:37:24.164Z,7.32
2019-03-06T04:38:24.143Z,7.33
2019-03-06T04:39:24.114Z,7.28
2019-03-06T04:40:24.094Z,7.41
2019-03-06T04:41:24.065Z,7.41
2019-03-06T04:42:24.045Z,7.36
2019-03-06T04:43:24.017Z,7.40
2019-03-06T04:44:23.993Z,7.40
2019-03-06T04:45:23.968Z,7.39
2019-03-06T04:46:23.948Z,7.40
2019-03-06T04:47:23.919Z,7.43
2019-03-06T04:48:23.896Z,7.43
2019-03-06T04:49:23.878Z,7.39
2019-03-06T04:50:23.848Z,7.40
2019-03-06T04:51:23.840Z,7.55
2019-03-06T04:52:23.797Z,7.47
2019-03-06T04:53:23.771Z,7.53
2019-03-06T04:54:23.747Z,7.44
2019-03-06T04:55:23.722Z,7.44
2019-03-06T04:56:23.763Z,7.47
2019-03-06T04:57:23.675Z,7.46
2019-03-06T04:58:23.699Z,7.51
2019-03-06T04:59:23.626Z,7.48
2019-03-06T05:00:23.603Z,7.50
2019-03-06T05:01:23.576Z,7.48
2019-03-06T05:02:23.556Z,7.47
2019-03-06T05:03:23.533Z,7.53
2019-03-06T05:04:23.624Z,7.56
2019-03-06T05:05:23.478Z,7.44
2019-03-06T05:06:23.522Z,7.56
2019-03-06T05:07:23.447Z,7.62
2019-03-06T05:08:23.520Z,7.62
2019-03-06T05:09:23.382Z,7.56
2019-03-06T05:10:23.409Z,7.58
2019-03-06T05:11:23.333Z,7.58
2019-03-06T05:12:23.309Z,7.64
2019-03-06T05:13:25.255Z,7.67
2019-03-06T05:14:23.260Z,7.56
2019-03-06T05:15:23.236Z,7.62
2019-03-06T05:16:23.220Z,7.66
2019-03-06T05:17:23.185Z,7.64
2019-03-06T05:18:23.162Z,7.69
2019-03-06T05:19:23.139Z,7.59
2019-03-06T05:20:23.115Z,7.55
2019-03-06T05:21:23.087Z,7.69
2019-03-06T05:22:23.062Z,7.67
2019-03-06T05:23:23.039Z,7.66
2019-03-06T05:24:23.019Z,7.61
2019-03-06T05:25:23.001Z,7.66
2019-03-06T05:26:22.971Z,7.64
2019-03-06T05:27:22.941Z,7.66
2019-03-06T05:28:22.921Z,7.66
2019-03-06T05:29:22.895Z,7.62
2019-03-06T05:30:22.868Z,7.74
2019-03-06T05:31:22.844Z,7.62
2019-03-06T05:32:22.820Z,7.72
2019-03-06T05:33:22.794Z,7.66
2019-03-06T05:34:22.771Z,7.67
2019-03-06T05:35:22.748Z,7.62
2019-03-06T05:36:22.723Z,7.66
2019-03-06T05:37:22.705Z,7.66
2019-03-06T05:38:22.674Z,7.64
2019-03-06T05:39:22.657Z,7.66
2019-03-06T05:40:22.626Z,7.62
2019-03-06T05:41:22.602Z,7.67
2019-03-06T05:42:22.594Z,7.59
2019-03-06T05:43:22.556Z,7.64
2019-03-06T05:44:22.529Z,7.61
2019-03-06T05:45:22.504Z,7.72
2019-03-06T05:46:22.480Z,7.77
2019-03-06T05:47:22.460Z,7.67
2019-03-06T05:48:22.436Z,7.69
2019-03-06T05:49:22.415Z,7.70
2019-03-06T05:50:22.381Z,7.74
2019-03-06T05:51:22.359Z,7.75
2019-03-06T05:52:22.332Z,7.70
2019-03-06T05:53:22.319Z,7.66
2019-03-06T05:54:22.284Z,7.67
2019-03-06T05:55:22.261Z,7.70
2019-03-06T05:56:22.235Z,7.72
2019-03-06T05:57:22.217Z,7.70
2019-03-06T05:58:22.187Z,7.81
2019-03-06T05:59:22.162Z,7.77
2019-03-06T06:00:22.139Z,7.78
2019-03-06T06:01:22.114Z,7.80
2019-03-06T06:02:22.092Z,7.83
2019-03-06T06:03:22.067Z,7.75
2019-03-06T06:04:22.041Z,7.83
2019-03-06T06:05:22.016Z,7.75
2019-03-06T06:06:21.994Z,7.75
2019-03-06T06:07:21.971Z,7.78
2019-03-06T06:08:21.944Z,7.84
2019-03-06T06:09:21.919Z,7.87
2019-03-06T06:10:21.896Z,7.85
2019-03-06T06:11:21.870Z,7.81
2019-03-06T06:12:21.846Z,7.80
2019-03-06T06:13:21.821Z,7.77
2019-03-06T06:14:21.800Z,7.83
2019-03-06T06:15:21.775Z,7.88
2019-03-06T06:16:21.755Z,7.84
2019-03-06T06:17:21.724Z,7.81
2019-03-06T06:18:21.703Z,7.80
2019-03-06T06:19:21.677Z,7.90
2019-03-06T06:20:21.665Z,7.88
2019-03-06T06:21:21.627Z,7.93
2019-03-06T06:22:21.603Z,7.87
2019-03-06T06:23:21.580Z,7.91
2019-03-06T06:24:21.555Z,7.88
2019-03-06T06:25:21.530Z,7.88
2019-03-06T06:26:21.510Z,7.88
2019-03-06T06:27:21.484Z,7.95
2019-03-06T06:28:21.457Z,7.91
2019-03-06T06:29:21.432Z,7.93
2019-03-06T06:30:22.097Z,7.98
2019-03-06T06:31:21.389Z,7.91
2019-03-06T06:32:21.360Z,7.91
2019-03-06T06:33:21.340Z,7.88
2019-03-06T06:34:21.313Z,7.91
2019-03-06T06:35:21.295Z,7.98
2019-03-06T06:36:21.268Z,8.02
2019-03-06T06:37:21.239Z,8.01
2019-03-06T06:38:21.215Z,8.01
2019-03-06T06:39:21.191Z,8.02
2019-03-06T06:40:21.168Z,8.06
2019-03-06T06:41:21.142Z,8.05
2019-03-06T06:42:21.122Z,8.02
2019-03-06T06:43:21.094Z,8.03
2019-03-06T06:44:21.075Z,8.03
2019-03-06T06:45:21.046Z,8.03
2019-03-06T06:46:21.023Z,8.05
2019-03-06T06:47:20.997Z,8.03
2019-03-06T06:48:20.973Z,8.05
2019-03-06T06:49:20.956Z,8.09
2019-03-06T06:50:20.968Z,8.13
2019-03-06T06:51:20.901Z,8.05
2019-03-06T06:52:20.877Z,8.11
2019-03-06T06:53:20.852Z,8.03
2019-03-06T06:54:20.829Z,8.06
2019-03-06T06:55:20.805Z,8.14
2019-03-06T06:56:20.781Z,8.21
2019-03-06T06:57:20.812Z,8.23
2019-03-06T06:58:20.732Z,8.14
2019-03-06T06:59:20.708Z,8.27
2019-03-06T07:00:20.685Z,8.21
2019-03-06T07:01:20.659Z,8.21
2019-03-06T07:02:20.636Z,8.20
2019-03-06T07:03:22.326Z,8.32
2019-03-06T07:04:20.589Z,8.23
2019-03-06T07:05:20.568Z,8.27
2019-03-06T07:06:20.540Z,8.31
2019-03-06T07:07:20.517Z,8.41
2019-03-06T07:08:20.504Z,8.36
2019-03-06T07:09:20.470Z,8.27
2019-03-06T07:10:20.443Z,8.31
2019-03-06T07:11:20.420Z,8.32
2019-03-06T07:12:20.397Z,8.39
2019-03-06T07:13:20.374Z,8.41
2019-03-06T07:14:20.349Z,8.39
2019-03-06T07:15:20.324Z,8.28
2019-03-06T07:16:20.299Z,8.42
2019-03-06T07:17:20.279Z,8.44
2019-03-06T07:18:20.252Z,8.45
2019-03-06T07:19:20.229Z,8.44
2019-03-06T07:20:20.206Z,8.50
2019-03-06T07:21:20.179Z,8.56
2019-03-06T07:22:20.155Z,8.41
2019-03-06T07:23:20.133Z,8.52
2019-03-06T07:24:20.109Z,8.45
2019-03-06T07:25:20.086Z,8.50
2019-03-06T07:26:20.060Z,8.59
2019-03-06T07:27:20.036Z,8.56
2019-03-06T07:28:20.014Z,8.57
2019-03-06T07:29:19.991Z,8.59
2019-03-06T07:30:19.963Z,8.60
2019-03-06T07:31:19.941Z,8.60
2019-03-06T07:32:19.921Z,8.68
2019-03-06T07:33:19.914Z,8.69
2019-03-06T07:34:19.870Z,8.64
2019-03-06T07:35:19.846Z,8.77
2019-03-06T07:36:19.822Z,8.71
2019-03-06T07:37:28.294Z,8.79
2019-03-06T07:38:19.774Z,8.74
2019-03-06T07:39:19.749Z,8.75
2019-03-06T07:40:19.726Z,8.74
2019-03-06T07:41:19.702Z,8.72
2019-03-06T07:42:19.678Z,8.84
2019-03-06T07:43:19.656Z,8.82
2019-03-06T07:44:19.634Z,8.79
2019-03-06T07:45:19.605Z,8.90
2019-03-06T07:46:19.603Z,8.90
2019-03-06T07:47:19.561Z,8.97
2019-03-06T07:48:19.535Z,8.92
2019-03-06T07:49:19.511Z,8.92
2019-03-06T07:50:19.492Z,8.97
2019-03-06T07:51:19.465Z,8.97
2019-03-06T07:52:19.444Z,8.96
2019-03-06T07:53:19.466Z,9.02
2019-03-06T07:54:19.433Z,9.08
2019-03-06T07:55:19.378Z,9.08
2019-03-06T07:56:19.352Z,9.19
2019-03-06T07:57:19.322Z,9.16
2019-03-06T07:58:19.300Z,9.18
2019-03-06T07:59:19.277Z,9.18
2019-03-06T08:00:19.256Z,9.19
2019-03-06T08:01:19.231Z,9.27
2019-03-06T08:02:19.206Z,9.22
2019-03-06T08:03:19.184Z,9.24
2019-03-06T08:04:19.264Z,9.26
2019-03-06T08:05:19.134Z,9.21
2019-03-06T08:06:19.111Z,9.31
2019-03-06T08:07:19.087Z,9.36
2019-03-06T08:08:19.064Z,9.42
2019-03-06T08:09:19.042Z,9.33
2019-03-06T08:10:19.017Z,9.37
2019-03-06T08:11:18.994Z,9.40
2019-03-06T08:12:19.009Z,9.37
2019-03-06T08:13:18.954Z,9.39
2019-03-06T08:14:22.292Z,9.49
2019-03-06T08:15:18.914Z,9.48
2019-03-06T08:16:18.877Z,9.55
2019-03-06T08:17:18.853Z,9.47
2019-03-06T08:18:18.834Z,9.40
2019-03-06T08:19:18.806Z,9.62
2019-03-06T08:20:18.787Z,9.51
2019-03-06T08:21:18.760Z,9.58
2019-03-06T08:22:18.734Z,9.67
2019-03-06T08:23:18.712Z,9.63
2019-03-06T08:24:18.689Z,9.64
2019-03-06T08:25:18.665Z,9.82
2019-03-06T08:26:18.645Z,9.80
2019-03-06T08:27:18.619Z,9.81
2019-03-06T08:28:18.597Z,9.88
2019-03-06T08:29:18.573Z,9.88
2019-03-06T08:30:18.549Z,9.90
2019-03-06T08:31:18.527Z,9.91
2019-03-06T08:32:18.505Z,9.94
2019-03-06T08:33:18.741Z,9.91
2019-03-06T08:34:18.458Z,9.95
2019-03-06T08:35:18.436Z,9.88
2019-03-06T08:36:18.418Z,9.97
2019-03-06T08:37:18.391Z,10.05
2019-03-06T08:38:18.372Z,9.99
2019-03-06T08:39:18.344Z,10.00
2019-03-06T08:40:18.320Z,10.09
2019-03-06T08:41:18.326Z,10.00
2019-03-06T08:42:18.278Z,10.10
2019-03-06T08:43:18.253Z,10.07
2019-03-06T08:44:18.232Z,10.13
2019-03-06T08:45:18.204Z,10.10
2019-03-06T08:46:18.186Z,10.18
2019-03-06T08:47:18.160Z,10.17
2019-03-06T08:48:18.140Z,10.17
2019-03-06T08:49:18.120Z,10.24
2019-03-06T08:50:18.092Z,10.21
2019-03-06T08:51:18.070Z,10.17
2019-03-06T08:52:18.046Z,10.21
2019-03-06T08:53:18.021Z,10.21
2019-03-06T08:54:18.001Z,10.24
2019-03-06T08:55:17.979Z,10.39
2019-03-06T08:56:17.961Z,10.30
2019-03-06T08:57:17.936Z,10.17
2019-03-06T08:58:17.910Z,10.34
2019-03-06T08:59:18.705Z,10.36
2019-03-06T09:00:17.864Z,10.24
2019-03-06T09:01:17.841Z,10.30
2019-03-06T09:02:17.820Z,10.27
2019-03-06T09:03:17.797Z,10.28
2019-03-06T09:04:17.775Z,10.30
2019-03-06T09:05:17.754Z,10.30
2019-03-06T09:06:17.730Z,10.43
2019-03-06T09:07:17.710Z,10.38
2019-03-06T09:08:17.684Z,10.42
2019-03-06T09:09:17.666Z,10.46
2019-03-06T09:10:17.640Z,10.41
2019-03-06T09:11:17.617Z,10.41
2019-03-06T09:12:17.595Z,10.43
2019-03-06T09:13:17.572Z,10.42
2019-03-06T09:14:17.549Z,10.46
2019-03-06T09:15:17.526Z,10.55
2019-03-06T09:16:17.504Z,10.42
2019-03-06T09:17:17.482Z,10.46
2019-03-06T09:18:17.463Z,10.51
2019-03-06T09:19:17.440Z,10.64
2019-03-06T09:20:17.429Z,10.58
2019-03-06T09:21:17.392Z,10.65
2019-03-06T09:22:17.375Z,10.69
2019-03-06T09:23:23.141Z,10.72
2019-03-06T09:24:17.328Z,10.76
2019-03-06T09:25:17.304Z,10.80
2019-03-06T09:26:17.279Z,10.79
2019-03-06T09:27:17.284Z,10.82
2019-03-06T09:28:17.239Z,10.92
2019-03-06T09:29:17.225Z,10.82
2019-03-06T09:30:17.194Z,10.87
2019-03-06T09:31:17.173Z,10.90
2019-03-06T09:32:17.152Z,11.00
2019-03-06T09:33:17.128Z,11.04
2019-03-06T09:34:17.103Z,11.15
2019-03-06T09:35:17.082Z,11.19
2019-03-06T09:36:19.032Z,11.13
2019-03-06T09:37:17.038Z,11.16
2019-03-06T09:38:17.017Z,11.25
2019-03-06T09:39:16.994Z,11.23
2019-03-06T09:40:16.977Z,11.22
2019-03-06T09:41:16.949Z,11.30
2019-03-06T09:42:18.458Z,11.34
2019-03-06T09:43:16.904Z,11.44
2019-03-06T09:44:16.884Z,11.49
2019-03-06T09:45:16.864Z,11.49
2019-03-06T09:46:16.857Z,11.59
2019-03-06T09:47:16.822Z,11.62
2019-03-06T09:48:16.810Z,11.62
2019-03-06T09:49:16.779Z,11.74
2019-03-06T09:50:16.752Z,11.73
2019-03-06T09:51:16.734Z,11.76
2019-03-06T09:52:16.715Z,11.86
2019-03-06T09:53:16.690Z,11.91
2019-03-06T09:54:16.675Z,11.91
2019-03-06T09:55:16.647Z,11.91
2019-03-06T09:56:16.624Z,11.91
2019-03-06T09:57:16.609Z,12.00
2019-03-06T09:58:16.581Z,12.00
2019-03-06T09:59:16.569Z,12.03
2019-03-06T10:00:16.541Z,12.14
2019-03-06T10:01:16.528Z,12.14
2019-03-06T10:02:16.498Z,12.21
2019-03-06T10:03:16.479Z,12.25
2019-03-06T10:04:16.458Z,12.28
2019-03-06T10:05:16.434Z,12.25
2019-03-06T10:06:16.416Z,12.40
2019-03-06T10:07:16.403Z,12.48
2019-03-06T10:08:16.376Z,12.57
2019-03-06T10:09:16.352Z,12.57
2019-03-06T10:10:16.333Z,12.68
2019-03-06T10:11:17.237Z,12.73
2019-03-06T10:12:16.296Z,12.63
2019-03-06T10:13:16.267Z,12.73
2019-03-06T10:14:16.250Z,12.80
2019-03-06T10:15:16.256Z,12.87
2019-03-06T10:16:16.218Z,12.84
2019-03-06T10:17:16.195Z,12.83
2019-03-06T10:18:16.166Z,12.90
2019-03-06T10:19:16.146Z,13.02
2019-03-06T10:20:24.783Z,13.06
2019-03-06T10:21:16.105Z,13.05
2019-03-06T10:22:16.087Z,13.13
2019-03-06T10:23:16.081Z,13.19
2019-03-06T10:24:16.047Z,13.19
2019-03-06T10:25:16.034Z,13.19
2019-03-06T10:26:16.028Z,13.31
2019-03-06T10:27:16.061Z,13.37
2019-03-06T10:28:16.019Z,13.43
2019-03-06T10:29:15.976Z,13.47
2019-03-06T10:30:15.974Z,13.55
2019-03-06T10:31:15.922Z,13.62
2019-03-06T10:32:15.944Z,13.52
2019-03-06T10:33:15.973Z,13.71
2019-03-06T10:34:15.847Z,13.70
2019-03-06T10:35:15.915Z,13.76
2019-03-06T10:36:15.807Z,13.91
2019-03-06T10:37:15.795Z,13.95
2019-03-06T10:38:16.838Z,13.86
2019-03-06T10:39:15.757Z,13.87
2019-03-06T10:40:15.867Z,13.78
2019-03-06T10:41:16.602Z,13.86
2019-03-06T10:42:15.692Z,13.82
2019-03-06T10:43:15.703Z,13.80
2019-03-06T10:44:15.714Z,13.82
2019-03-06T10:45:15.624Z,13.76
2019-03-06T10:46:15.630Z,13.85
2019-03-06T10:47:15.579Z,13.71
2019-03-06T10:48:15.565Z,13.62
2019-03-06T10:49:15.575Z,13.70
2019-03-06T10:50:15.544Z,13.61
2019-03-06T10:51:15.504Z,13.64
2019-03-06T10:52:15.496Z,13.58
2019-03-06T10:53:15.459Z,13.49
2019-03-06T10:54:15.442Z,13.52
2019-03-06T10:55:15.434Z,13.55
2019-03-06T10:56:15.403Z,13.52
2019-03-06T10:57:15.434Z,13.46
2019-03-06T10:58:15.387Z,13.55
2019-03-06T10:59:15.336Z,13.47
2019-03-06T11:00:15.331Z,13.60
2019-03-06T11:01:15.333Z,13.58
2019-03-06T11:02:15.279Z,13.52
2019-03-06T11:03:15.263Z,13.62
2019-03-06T11:04:15.249Z,13.60
2019-03-06T11:05:15.212Z,13.61
2019-03-06T11:06:15.191Z,13.68
2019-03-06T11:07:15.197Z,13.68
2019-03-06T11:08:15.154Z,13.76
2019-03-06T11:09:15.160Z,13.86
2019-03-06T11:10:23.520Z,13.97
2019-03-06T11:11:15.102Z,13.94
2019-03-06T11:12:15.097Z,13.93
2019-03-06T11:13:15.057Z,13.95
2019-03-06T11:14:15.030Z,14.11
2019-03-06T11:15:15.015Z,14.19
2019-03-06T11:16:17.894Z,14.22
2019-03-06T11:17:14.967Z,14.43
2019-03-06T11:18:16.392Z,14.40
2019-03-06T11:19:14.929Z,14.52
2019-03-06T11:20:14.906Z,14.51
2019-03-06T11:21:14.885Z,14.63
2019-03-06T11:22:14.873Z,14.68
2019-03-06T11:23:14.846Z,14.81
2019-03-06T11:24:14.839Z,14.93
2019-03-06T11:25:14.806Z,14.99
2019-03-06T11:26:14.794Z,15.05
2019-03-06T11:27:14.768Z,15.14
2019-03-06T11:28:14.758Z,15.15
2019-03-06T11:29:14.729Z,15.32
2019-03-06T11:30:14.712Z,15.50
2019-03-06T11:31:14.695Z,15.36
2019-03-06T11:32:14.684Z,15.32
2019-03-06T11:33:14.654Z,15.23
2019-03-06T11:34:14.641Z,15.18
2019-03-06T11:35:14.613Z,15.11
2019-03-06T11:36:14.595Z,14.90
2019-03-06T11:37:14.581Z,14.79
2019-03-06T11:38:14.566Z,14.92
2019-03-06T11:39:14.542Z,14.93
2019-03-06T11:40:14.522Z,14.93
2019-03-06T11:41:14.502Z,14.85
2019-03-06T11:42:14.485Z,14.77
2019-03-06T11:43:14.462Z,14.74
2019-03-06T11:44:14.446Z,14.79
2019-03-06T11:45:14.430Z,14.96
2019-03-06T11:46:14.410Z,15.18
2019-03-06T11:47:14.388Z,15.43
2019-03-06T11:48:14.368Z,15.72
2019-03-06T11:49:14.351Z,15.65
2019-03-06T11:50:14.327Z,16.17
2019-03-06T11:51:14.316Z,16.41
2019-03-06T11:52:14.292Z,16.62
2019-03-06T11:53:14.274Z,16.40
2019-03-06T11:54:14.257Z,16.43
2019-03-06T11:55:14.237Z,16.44
2019-03-06T11:56:14.217Z,16.34
2019-03-06T11:57:14.213Z,16.32
2019-03-06T11:58:14.187Z,16.10
2019-03-06T11:59:14.170Z,15.76
2019-03-06T12:00:14.785Z,15.63
2019-03-06T12:01:14.130Z,15.47
2019-03-06T12:02:14.109Z,15.22
2019-03-06T12:03:14.096Z,15.12
2019-03-06T12:04:14.076Z,14.99
2019-03-06T12:05:14.053Z,14.97
2019-03-06T12:06:14.036Z,14.85
2019-03-06T12:07:14.026Z,14.79
2019-03-06T12:08:14.358Z,14.93
2019-03-06T12:09:13.978Z,14.96
2019-03-06T12:10:15.597Z,14.94
2019-03-06T12:11:13.941Z,14.93
2019-03-06T12:12:13.923Z,14.94
2019-03-06T12:13:13.904Z,14.93
2019-03-06T12:14:13.886Z,15.02
2019-03-06T12:15:13.869Z,15.07
2019-03-06T12:16:13.847Z,15.02
2019-03-06T12:17:13.827Z,14.92
2019-03-06T12:18:13.810Z,14.92
2019-03-06T12:19:13.793Z,14.92
2019-03-06T12:20:13.775Z,14.86
2019-03-06T12:21:13.763Z,14.79
2019-03-06T12:22:13.732Z,14.89
2019-03-06T12:23:13.723Z,14.93
2019-03-06T12:24:13.693Z,15.11
2019-03-06T12:25:13.679Z,15.14
2019-03-06T12:26:13.658Z,15.29
2019-03-06T12:27:13.641Z,15.30
2019-03-06T12:28:13.615Z,15.30
2019-03-06T12:29:13.595Z,15.29
2019-03-06T12:30:13.583Z,15.39
2019-03-06T12:31:13.563Z,15.39
2019-03-06T12:32:13.545Z,15.29
2019-03-06T12:33:13.521Z,15.29
2019-03-06T12:34:13.510Z,15.25
2019-03-06T12:35:13.488Z,15.32
2019-03-06T12:36:13.470Z,15.35
2019-03-06T12:37:13.443Z,15.47
2019-03-06T12:38:13.431Z,15.48
2019-03-06T12:39:13.411Z,15.48
2019-03-06T12:40:14.846Z,15.43
2019-03-06T12:41:13.369Z,15.41
2019-03-06T12:42:14.680Z,15.44
2019-03-06T12:43:13.328Z,15.35
2019-03-06T12:44:13.312Z,15.36
2019-03-06T12:45:13.305Z,15.43
2019-03-06T12:46:22.335Z,15.33
2019-03-06T12:47:13.263Z,15.30
2019-03-06T12:48:13.246Z,15.25
2019-03-06T12:49:13.218Z,15.19
2019-03-06T12:50:13.198Z,15.36
2019-03-06T12:51:13.178Z,15.39
2019-03-06T12:52:13.159Z,15.41
2019-03-06T12:53:13.137Z,15.44
2019-03-06T12:54:13.130Z,15.30
2019-03-06T12:55:13.132Z,15.44
2019-03-06T12:56:13.092Z,15.37
2019-03-06T12:57:13.064Z,15.32
2019-03-06T12:58:13.045Z,15.35
2019-03-06T12:59:13.033Z,15.41
2019-03-06T13:00:13.024Z,15.35
2019-03-06T13:01:12.996Z,15.44
2019-03-06T13:02:12.969Z,15.33
2019-03-06T13:03:12.949Z,15.30
2019-03-06T13:04:12.937Z,15.44
2019-03-06T13:05:12.911Z,15.43
2019-03-06T13:06:12.891Z,15.43
2019-03-06T13:07:12.878Z,15.27
2019-03-06T13:08:19.664Z,15.41
2019-03-06T13:09:12.848Z,15.33